Tiempo atmosférico en la estación meteorológica de A Coruña Aeropuerto, A Coruña (98 m.)

Fecha
DESCASC
Temp. máxima en grados centígrados (hora)
DESCASC
Temp. mínima en grados centígrados (hora)
DESCASC
Temp. media en grados centígrados
DESCASC
Racha de viento máxima en m/sg (hora)
DESCASC
Velocidad máxima media en intervalos de 10 minutos(hora)
DESCASC
Precipitaciones diarias en mm
DESCASC
Precipitaciones de 00:00 a 06:00 en mm
DESCASC
Precipitaciones de 06:00 a 12:00 en mm
DESCASC
Precipitaciones de 12:00 a 18:00 en mm
DESCASC
Precipitaciones de 18:00 a 24:00 en mm
DESCASC
23-11-2017 18.6 (15:30) 12.7 (05:50) 15.7 15.28 (15:20) 9.72 (15:30) 0 0 0 0 0
22-11-2017 20.3 (15:50) 13.8 (07:30) 17 24.17 (17:10) 16.11 (17:00) 3.8 0 0 0.1 3.7
21-11-2017 20.5 (15:20) 6.7 (06:10) 13.6 11.67 (13:30) 8.06 (20:10) 0 0 0 0 0
20-11-2017 19.6 (16:00) 4.2 (08:40) 11.9 8.89 (07:20) 4.72 (10:20) 0 0 0 0 0
19-11-2017 19.2 (14:30) 2.6 (00:00) 10.9 6.11 (11:20) 3.61 (03:50) 0 0 0 0 0
18-11-2017 17.7 (13:50) 2.5 (00:00) 10.1 6.67 (21:40) 3.33 (06:40) 0 0 0 0 0
17-11-2017 16.2 (16:00) 4.3 (00:00) 10.3 7.22 (21:10) 2.78 (09:30) 0 0 0 0 0
16-11-2017 15.2 (14:00) 3 (00:00) 9.1 7.22 (10:50) 3.61 (15:40) 0 0 0 0 0
15-11-2017 16.7 (12:30) 4.5 (00:00) 10.6 6.67 (07:10) 3.89 (08:30) 0 0 0 0 0
14-11-2017 16 (16:50) 2.4 (00:00) 9.2 8.33 (09:40) 3.33 (07:40) 0 0 0 0 0
13-11-2017 14.9 (15:00) 7.8 (00:00) 11.3 9.17 (15:50) 5.83 (14:00) 0.1 0.1 0 0 0
12-11-2017 16.1 (13:30) 12 (00:00) 14.1 9.72 (16:40) 5.83 (16:40) 1.4 0 0 1.2 0.2
11-11-2017 15.5 (12:40) 11.3 (00:00) 13.4 5 (12:00) 2.5 (14:30) 0 0 0 0 0
10-11-2017 14.8 (14:30) 10.9 (00:00) 12.8 8.89 (12:10) 4.72 (15:00) 1.7 0.8 0.9 0 0
09-11-2017 13.2 (13:50) 6.3 (00:00) 9.8 8.33 (20:40) 4.44 (20:40) 2.7 0 2.4 0.1 0.2
08-11-2017 13.7 (16:30) 4.3 (00:00) 9 8.89 (15:50) 5 (16:50) 1.5 0 1.2 0.3 0
07-11-2017 13.8 (16:20) 3 (00:00) 8.4 8.89 (17:00) 5.28 (17:10) 1.5 0 0 0.5 1
06-11-2017 15.1 (15:10) 5.4 (00:00) 10.3 5.83 (06:50) 3.06 (15:20) 0 0 0 0 0
05-11-2017 14.9 (12:30) 8.3 (00:00) 11.6 10.28 (00:50) 5.56 (13:00) 0.5 0 0 0 0.5
04-11-2017 16.4 (12:40) 11.3 (00:00) 13.8 14.44 (15:50) 8.06 (15:50) 2 0 1.8 0.1 0.1
03-11-2017 17.6 (14:50) 12.1 (00:00) 14.9 11.67 (07:40) 6.11 (07:30) 0.3 0 0 0 0.3
02-11-2017 20.1 (15:20) 12.6 (23:50) 16.4 11.39 (15:00) 7.5 (15:00) 17.1 0.9 9.2 0 7
01-11-2017 19.7 (13:50) 10.4 (00:00) 15.1 10.28 (12:50) 7.22 (07:40) 0 0 0 0 0
31-10-2017 21.5 (15:10) 6 (00:00) 13.8 8.89 (10:50) 4.44 (09:00) 0 0 0 0 0
30-10-2017 19.1 (14:30) 13.4 (00:00) 16.3 11.39 (13:50) 6.94 (16:40) 0 0 0 0 0
29-10-2017 20.2 (14:30) 6.7 (00:00) 13.5 9.17 (15:00) 6.39 (14:40) 0 0 0 0 0
28-10-2017 21.7 (16:00) 8.5 (00:00) 15.1 6.11 (17:20) 3.89 (17:20) 0 0 0 0 0
27-10-2017 25.5 (15:50) 10.8 (00:00) 18.2 9.72 (12:30) 3.33 (07:10) 0 0 0 0 0
26-10-2017 25.2 (16:40) 12.6 (00:00) 18.9 10.83 (08:40) 6.39 (08:40) 0 0 0 0 0

Gráficas

Temp. máximas Temp. mínimas Temp. medias Precipitaciones Rachas de viento máximas Velocidades máximas media en intervalos de 10 minutos

Datos horarios

Fecha y hora oficial Temperatura (ºC) Velocidad del viento (km/h) Dirección del viento Racha (km/h) Dirección de racha Precipitación (mm) Presión (hPa) Tendencia (hPa) Humedad (%)
2017-11-24 23:00:00 11.3 4 Norte 18 Norte 0.7 1008.1 3.1 97
2017-11-24 22:00:00 11.1 9 Norte 28 Norte 1.8 1007.1 2.5 97
2017-11-24 21:00:00 11.7 14 Norte 33 Norte 2.4 1006.1 1.9 98
2017-11-24 20:00:00 11.7 0 Calma 4 Noroeste 2.7 1005 1.2 97
2017-11-24 19:00:00 12.2 0 Calma 4 Oeste 2.4 1004.6 0.8 98
2017-11-24 18:00:00 12.3 0 Calma 11 Sudeste 1.2 1004.2 0.2 98
2017-11-24 17:00:00 12.4 0 Calma 8 Sur 1.1 1003.8 -0.6 98
2017-11-24 16:00:00 12.1 5 Norte 11 Norte 2.5 1003.8 -1 97
2017-11-24 15:00:00 12.8 0 Calma 4 Norte 1.9 1004 -1.3 95
2017-11-24 14:00:00 13.1 0 Calma 5 Este 1.1 1004.4 -0.5 93
2017-11-24 13:00:00 12.8 0 Calma 21 Nordeste 1.2 1004.8 0.1 91
2017-11-24 12:00:00 12.6 6 Sur 11 Sur 0.9 1005.3 1.4 95
2017-11-24 11:00:00 12.4 3 Sur 17 Sudeste 0.5 1004.9 1.7 95
2017-11-24 10:00:00 11.7 8 Sur 22 Sudeste 0.1 1004.7 2 96
2017-11-24 09:00:00 11.4 0 Calma 11 Sur 0 1003.9 1.5 97
2017-11-24 08:00:00 11.6 7 Sur 15 Sudeste 0 1003.2 0.9 97
2017-11-24 07:00:00 11.7 4 Sur 18 Sur 0 1002.7 0.6 97
2017-11-24 06:00:00 11.8 9 Sur 17 Sur 0 1002.4 0.3 97
2017-11-24 05:00:00 12.1 11 Sur 17 Sudeste 0.6 1002.3 0.5 96
2017-11-24 04:00:00 12.5 7 Sur 15 Sudeste 0 1002.1 0.1 91
2017-11-24 03:00:00 12.8 4 Sudeste 24 Oeste 0 1002.1 0.3 90
2017-11-24 02:00:00 13.1 10 Noroeste 24 Noroeste 0 1001.8 0.1 87
2017-11-24 01:00:00 13.4 9 Noroeste 26 Noroeste 0 1002 0.4 88
2017-11-24 00:00:00 14.5 7 Noroeste 17 Noroeste 0 1001.8 1 87
2017-11-23 23:00:00 14.6 9 Oeste 18 Noroeste 0 1001.7 1.1 86
2017-11-23 22:00:00 14.6 3 Noroeste 18 Oeste 0 1001.6 1.5 87
2017-11-23 21:00:00 16 14 Sudoeste 35 Sur 0 1000.8 1.2 81
2017-11-23 20:00:00 16.1 18 Sur 32 Sur 0 1000.6 1.2 79
2017-11-23 19:00:00 16 14 Sur 35 Sur 0 1000.1 1.2 79
2017-11-23 18:00:00 16.5 20 Sur 45 Sur 0 999.6 1.2 77
2017-11-23 17:00:00 17.5 25 Sur 48 Sur 0 999.4 0.8 74
2017-11-23 16:00:00 18 24 Sudoeste 55 Sudoeste 0 998.9 0.1 71
2017-11-23 15:00:00 17.8 25 Sur 52 Sur 0 998.4 -0.3 72
2017-11-23 14:00:00 17.9 29 Sudoeste 48 Sudoeste 0 998.6 0.2 74
2017-11-23 13:00:00 17.1 21 Sur 52 Sudoeste 0 998.8 0.7 76
2017-11-23 12:00:00 17.6 25 Sur 39 Sur 0 998.7 0.9 72
2017-11-23 11:00:00 16 15 Sur 30 Sur 0 998.4 1.4 79
2017-11-23 10:00:00 15.6 15 Sur 28 Sur 0 998.1 1.6 81
2017-11-23 09:00:00 13.9 15 Sur 24 Sudoeste 0 997.8 2 86
2017-11-23 08:00:00 13.5 10 Sur 22 Sudoeste 0 997 1.8 87
2017-11-23 07:00:00 13 17 Sudoeste 26 Sudoeste 0 996.5 1.7 88
2017-11-23 06:00:00 13.1 17 Sudoeste 26 Sudoeste 0 995.8 2 88
2017-11-23 05:00:00 14.5 17 Sudoeste 28 Oeste 0 995.2 1.5 80
2017-11-23 04:00:00 14.6 8 Sudoeste 13 Sur 0 994.8 1.5 86
2017-11-23 03:00:00 14.3 8 Sudoeste 17 Sur 0 993.8 0.7 88
2017-11-23 02:00:00 14.7 5 Sur 26 Sudoeste 0 993.7 0.9 84
2017-11-23 01:00:00 15.1 15 Sudoeste 24 Sudoeste 0 993.3 1.1 79
2017-11-23 00:00:00 15.3 8 Sudoeste 24 Sur 0 993.1 1.6 78
2017-11-22 23:00:00 15.8 14 Sudoeste 30 Sudoeste 0 992.8 2 79
2017-11-22 22:00:00 16.1 16 Sur 37 Sudoeste 0 992.2 1.8 81
2017-11-22 21:00:00 16.1 24 Sudoeste 37 Sudoeste 0 991.5 1.9 83
2017-11-22 20:00:00 15 20 Sudoeste 72 Sur 2.3 990.8 1.1 87
2017-11-22 19:00:00 15.3 39 Sudoeste 72 Sudoeste 1.4 990.4 1.5 82
2017-11-22 18:00:00 16.7 46 Sudoeste 87 Sudoeste 0.1 989.6 1 68
2017-11-22 17:00:00 18.9 58 Sudoeste 85 Sudoeste 0 989.7 -0.6 48
2017-11-22 16:00:00 20 34 Sudoeste 68 Sur 0 988.9 -4.4 41
2017-11-22 15:00:00 20.1 40 Sur 67 Sur 0 988.6 -5.5 41
2017-11-22 14:00:00 18.6 32 Sur 63 Sur 0 990.3 -4 53
2017-11-22 13:00:00 18 23 Sur 48 Sur 0 993.3 -1.3 61
2017-11-22 12:00:00 17.4 24 Sur 41 Sur 0 994.1 -0.3 54
2017-11-22 11:00:00 15.7 18 Sur 37 Sur 0 994.3 -0.3 52
2017-11-22 10:00:00 15.6 22 Sur 50 Sur 0 994.6 -0.6 50
2017-11-22 09:00:00 15.3 27 Sur 45 Sur 0 994.4 -1.7 51
2017-11-22 08:00:00 14.3 19 Sur 45 Sur 0 994.6 -2.2 58
2017-11-22 07:00:00 14.4 26 Sur 52 Sudoeste 0 995.2 -2.2 64
2017-11-22 06:00:00 14.9 27 Sur 55 Sur 0 996.1 -1.6 64
2017-11-22 05:00:00 15 32 Sudoeste 54 Sudoeste 0 996.8 -1.9 69
2017-11-22 04:00:00 14.9 36 Sudoeste 63 Sur 0 997.4 -2.6 71
2017-11-22 03:00:00 14.8 31 Sur 52 Sudoeste 0 997.7 -3.1 73
2017-11-22 02:00:00 14.9 24 Sur 46 Este 0 998.7 -3.1 73
2017-11-22 01:00:00 14.8 19 Este 39 Sudeste 0 1000 -2.6 73
2017-11-22 00:00:00 14.6 17 Sudeste 41 Sudeste 0 1000.8 -1.7 70
2017-11-21 23:00:00 14 15 Sudeste 28 Sudeste 0 1001.8 -1.1 65
2017-11-21 22:00:00 14.2 14 Sur 35 Sur 0 1002.6 -0.8 59
2017-11-21 21:00:00 13.9 16 Sur 39 Sur 0 1002.5 -0.8 57
2017-11-21 20:00:00 14.9 28 Sur 42 Sur 0 1002.9 -0.5 53
2017-11-21 19:00:00 14.6 17 Sur 26 Sur 0 1003.4 -0.2 54
2017-11-21 18:00:00 17 15 Sur 32 Sur 0 1003.3 -0.8 48
2017-11-21 17:00:00 18.5 16 Sur 30 Sur 0 1003.4 -1.4 45
2017-11-21 16:00:00 19.4 21 Sur 41 Sur 0 1003.6 -1.7 41
2017-11-21 15:00:00 20.1 21 Sur 35 Sur 0 1004.1 -2.7 38
2017-11-21 14:00:00 19.3 16 Sur 42 Sur 0 1004.8 -2 39
2017-11-21 13:00:00 18.9 21 Sur 35 Sur 0 1005.3 -1.9 39
2017-11-21 12:00:00 17 11 Sur 32 Sur 0 1006.8 -0.4 45
2017-11-21 11:00:00 14.6 14 Sudeste 22 Sudeste 0 1006.8 -0.3 51
2017-11-21 10:00:00 12.4 14 Sudeste 22 Sudeste 0 1007.2 0.1 52
2017-11-21 09:00:00 8.1 8 Sur 18 Sur 0 1007.2 -0.2 68
2017-11-21 08:00:00 8.5 2 Sudoeste 18 Sur 0 1007.1 -0.4 66
2017-11-21 07:00:00 7.7 13 Sur 22 Sur 0 1007.1 -0.6 70
2017-11-21 06:00:00 7.2 14 Sur 21 Sur 0 1007.4 -0.3 74
2017-11-21 05:00:00 8 13 Sur 18 Sur 0 1007.5 -0.4 72
2017-11-21 04:00:00 10.4 5 Sudeste 8 Sudeste 0 1007.7 -0.5 61
2017-11-21 03:00:00 9.1 2 Noroeste 8 Oeste 0 1007.7 -0.5 68
2017-11-21 02:00:00 8.8 2 Noroeste 18 Sur 0 1007.9 -0.7 71
2017-11-21 01:00:00 8.7 0 Calma 22 Sur 0 1008.2 -0.6 72
2017-11-21 00:00:00 7.9 12 Sur 24 Sur 0 1008.2 -1 78
2017-11-20 23:00:00 10.6 15 Sur 28 Sur 0 1008.6 -0.7 65
2017-11-20 22:00:00 9.4 10 Sur 24 Sur 0 1008.8 -0.2 73
2017-11-20 21:00:00 10.1 5 Sur 22 Sur 0 1009.2 0.6 81
2017-11-20 20:00:00 11.5 0 Calma 13 Sur 0 1009.3 0.7 73
2017-11-20 19:00:00 12.5 12 Sur 15 Sur 0 1009 0.6 76
2017-11-20 18:00:00 15.4 4 Sur 21 Sur 0 1008.6 -0.1 60
2017-11-20 17:00:00 18.1 5 Sur 18 Sudeste 0 1008.6 -0.2 47
2017-11-20 16:00:00 19.6 6 Sur 18 Sur 0 1008.4 -1.2 40
2017-11-20 15:00:00 18.8 11 Sur 18 Sudoeste 0 1008.7 -1.4 37
2017-11-20 14:00:00 18.3 6 Sudeste 15 Sur 0 1008.8 -1.4 42
2017-11-20 13:00:00 16.9 7 Sur 18 Sudeste 0 1009.6 -0.6 47
2017-11-20 12:00:00 13.6 8 Sur 21 Sur 0 1010.1 0.2 58
2017-11-20 11:00:00 10.6 9 Sur 24 Sur 0 1010.2 0.3 66
2017-11-20 10:00:00 6.7 15 Sur 30 Sur 0 1010.2 0.6 83
2017-11-20 09:00:00 4.5 12 Sur 24 Sur 0 1009.9 0.5 88
2017-11-20 08:00:00 4.6 12 Sur 32 Sur 0 1009.9 0.7 90
2017-11-20 07:00:00 4.8 15 Sur 22 Sur 0 1009.6 0.5 94
2017-11-20 06:00:00 4.4 14 Sur 18 Sur 0 1009.4 0.2 96
2017-11-20 05:00:00 4.8 13 Sur 17 Sur 0 1009.2 -0.5 95
2017-11-20 04:00:00 5.4 14 Sudeste 17 Sudeste 0 1009.1 -1.2 97
2017-11-20 03:00:00 5.6 7 Sur 17 Sur 0 1009.2 -1 97
2017-11-20 02:00:00 6.6 11 Sur 17 Sur 0 1009.7 -0.8 96
2017-11-20 01:00:00 6 5 Sur 15 Sur 0 1010.3 0.2 97
2017-11-20 00:00:00 6.9 12 Sur 15 Sur 0 1010.2 0.1 96
2017-11-19 23:00:00 7.8 8 Sur 15 Sur 0 1010.5 0.5 95
2017-11-19 22:00:00 8.6 9 Sur 13 Sur 0 1010.1 0.4 93
2017-11-19 21:00:00 9.6 6 Sur 21 Sur 0 1010.1 1 90
2017-11-19 20:00:00 10.4 7 Sur 8 Sur 0 1010 1 82
2017-11-19 19:00:00 12.3 0 Calma 4 Oeste 0 1009.7 1 75
2017-11-19 18:00:00 14.5 0 Calma 13 Nordeste 0 1009.1 0.2 67
2017-11-19 17:00:00 15.9 8 Norte 15 Norte 0 1009 -0.4 67
2017-11-19 16:00:00 17.1 6 Norte 11 Norte 0 1008.7 -1 61
2017-11-19 15:00:00 17.9 5 Norte 8 Norte 0 1008.9 -1.2 59
2017-11-19 14:00:00 18.5 0 Calma 13 Sudeste 0 1009.4 -0.7 58
2017-11-19 13:00:00 16 7 Sur 15 Sur 0 1009.7 -0.1 65
2017-11-19 12:00:00 12.5 9 Sur 22 Sudeste 0 1010.1 0.6 72
2017-11-19 11:00:00 9.3 10 Sur 21 Sur 0 1010.1 1.1 79
2017-11-19 10:00:00 5.6 9 Sur 18 Sur 0 1009.8 1.4 93
2017-11-19 09:00:00 4.5 12 Sur 18 Sur 0 1009.5 1.1 97
2017-11-19 08:00:00 3.4 6 Sur 15 Sur 0 1009 0.3 98
2017-11-19 07:00:00 3.7 10 Sur 18 Sur 0 1008.4 -0.5 98
2017-11-19 06:00:00 3.9 12 Sur 15 Sur 0 1008.4 -0.5 98
2017-11-19 05:00:00 4.4 12 Sur 15 Sur 0 1008.7 -0.3 98
2017-11-19 04:00:00 4.5 11 Sur 17 Sur 0 1008.9 -0.2 98
2017-11-19 03:00:00 4.9 5 Sur 13 Sudeste 0 1008.9 -0.2 98
2017-11-19 02:00:00 5.2 6 Sur 11 Sur 0 1009 0.1 97
2017-11-19 01:00:00 6.5 8 Sur 11 Sur 0 1009.1 0 95
2017-11-19 00:00:00 8.3 0 Calma -- -- 0 1009.1 -0.1 95
2017-11-18 23:00:00 8.3 6 Sur 18 Sudeste 0 1008.9 -0.3 91
2017-11-18 22:00:00 9.6 8 Sudeste 24 Sudeste 0 1009.1 0.1 90
2017-11-18 21:00:00 11.1 5 Sur 13 Sur 0 1009.2 0.4 84
2017-11-18 20:00:00 12.4 2 Este 13 Sudeste 0 1009.2 0.7 79
2017-11-18 19:00:00 13.3 0 Calma 5 Noroeste 0 1009 0.7 77
2017-11-18 18:00:00 14.8 4 Noroeste 13 Norte 0 1008.8 0.1 72
2017-11-18 17:00:00 16.9 6 Norte 13 Norte 0 1008.5 -0.5 62
2017-11-18 16:00:00 17.6 4 Norte 11 Norte 0 1008.3 -1.3 58
2017-11-18 15:00:00 16.7 5 Norte 11 Norte 0 1008.7 -1.4 57
2017-11-18 14:00:00 17.4 4 Sudeste 8 Sudoeste 0 1009 -1.1 56
2017-11-18 13:00:00 15.9 2 Sudeste 17 Sur 0 1009.6 -0.5 62
2017-11-18 12:00:00 13.5 0 Calma 8 Sur 0 1010.1 0.4 70
2017-11-18 11:00:00 8.8 0 Calma 11 Este 0 1010.1 0.8 89
2017-11-18 10:00:00 5.1 5 Sur 11 Sur 0 1010.1 1.1 98
2017-11-18 09:00:00 3.4 7 Sur 8 Sur 0 1009.7 0.5 99
2017-11-18 08:00:00 3.4 8 Sur 11 Sur 0 1009.3 -0.2 99
2017-11-18 07:00:00 3.4 6 Sur 17 Sur 0 1009 -0.8 98
2017-11-18 06:00:00 3.5 5 Sur 13 Sur 0 1009.2 -0.3 98
2017-11-18 05:00:00 3.5 6 Sur -- -- 0 1009.5 -0.1 98
2017-11-18 04:00:00 -- -- -- -- -- 0 1009.8 -0.3 --
2017-11-18 03:00:00 5.2 3 Sur 11 Sur 0 1009.5 -0.7 98
2017-11-18 02:00:00 5.3 0 Calma 11 Sur 0 1009.6 -0.7 98
2017-11-18 01:00:00 6.3 4 Sur 13 Sur 0 1010.1 0.2 97
2017-11-18 00:00:00 8 8 Sur 15 Sur 0 1010.2 0.5 93
2017-11-17 23:00:00 9.1 3 Sudeste 8 Sudeste 0 1010.3 0.7 89
2017-11-17 22:00:00 9.9 0 Calma 26 Sudeste 0 1009.9 0.6 91
2017-11-17 21:00:00 10.6 3 Sur 17 Sudeste 0 1009.7 0.8 92
2017-11-17 20:00:00 11.8 3 Este 8 Este 0 1009.6 1 82
2017-11-17 19:00:00 12.6 3 Noroeste 8 Norte 0 1009.3 0.4 81
2017-11-17 18:00:00 14.1 4 Norte 11 Norte 0 1008.9 -0.4 77
2017-11-17 17:00:00 15.4 4 Norte 8 Norte 0 1008.6 -1 70
2017-11-17 16:00:00 16.1 2 Norte 8 Norte 0 1008.9 -1.2 67
2017-11-17 15:00:00 15.8 3 Norte 11 Norte 0 1009.3 -1.4 66
2017-11-17 14:00:00 14.8 3 Norte 8 Nordeste 0 1009.6 -1.1 71
2017-11-17 13:00:00 13.3 0 Calma 5 Sur 0 1010.1 -0.6 77
2017-11-17 12:00:00 10.6 0 Calma -- -- 0 1010.7 0 98
2017-11-17 11:00:00 8.3 0 Calma 8 Sur 0 1010.7 0.4 99
2017-11-17 10:00:00 5.3 7 Sur 15 Sur 0 1010.7 0.6 99
2017-11-17 09:00:00 4.5 6 Sur 11 Sur 0 1010.7 0.5 99
2017-11-17 08:00:00 4.9 4 Sur 22 Sudeste 0 1010.3 0.3 99
2017-11-17 07:00:00 5.7 7 Sur 11 Sur 0 1010.1 -0.2 99
2017-11-17 06:00:00 6.1 8 Sur 11 Sur 0 1010.2 -0.1 99
2017-11-17 05:00:00 6.9 6 Sur 8 Sur 0 1010 -0.4 99
2017-11-17 04:00:00 7.8 4 Sur 8 Sur 0 1010.3 -0.3 99
2017-11-17 03:00:00 8.4 3 Sudeste 8 Sur 0 1010.3 -0.3 99
2017-11-17 02:00:00 8.8 4 Sur 11 Sur 0 1010.4 -0.1 98
2017-11-17 01:00:00 8.8 3 Sur 8 Sur 0 1010.6 0.3 98
2017-11-17 00:00:00 8.8 4 Sur 8 Sur 0 1010.6 0.4 98
2017-11-16 23:00:00 8.8 2 Sur 13 Sudeste 0 1010.5 0.4 97
2017-11-16 22:00:00 9.2 0 Calma 5 Noroeste 0 1010.3 0.7 93
2017-11-16 21:00:00 10.9 4 Noroeste 5 Noroeste 0 1010.2 0.7 92
2017-11-16 20:00:00 11.6 2 Noroeste 8 Norte 0 1010.1 1 89
2017-11-16 19:00:00 12.4 3 Noroeste 8 Noroeste 0 1009.6 0.4 88
2017-11-16 18:00:00 13.4 3 Noroeste 8 Noroeste 0 1009.5 0.2 85
2017-11-16 17:00:00 14.2 3 Noroeste 18 Noroeste 0 1009.1 -0.5 83
2017-11-16 16:00:00 14.3 12 Norte 24 Norte 0 1009.2 -0.7 83
2017-11-16 15:00:00 14.6 12 Norte 22 Norte 0 1009.3 -0.9 78
2017-11-16 14:00:00 15.1 7 Norte 15 Norte 0 1009.6 -0.6 67
2017-11-16 13:00:00 13.8 3 Norte 9 Norte 0 1009.9 0 60
2017-11-16 12:00:00 11.5 0 Calma 11 Sur 0 1010.2 0.9 74
2017-11-16 11:00:00 8 6 Sur 26 Sur 0 1010.2 1.4 85
2017-11-16 10:00:00 4.3 8 Sur 15 Sur 0 1009.9 1.3 95
2017-11-16 09:00:00 3.6 11 Sur 18 Sudeste 0 1009.3 1.2 97
2017-11-16 08:00:00 3.3 11 Sur 18 Sudeste 0 1008.8 0.9 97
2017-11-16 07:00:00 3.4 6 Sur 18 Sudeste 0 1008.6 0.6 97
2017-11-16 06:00:00 3.1 10 Sur 15 Sur 0 1008.1 0.1 97
2017-11-16 05:00:00 4.3 10 Sur 13 Sur 0 1007.9 0 97
2017-11-16 04:00:00 4.3 10 Sur 15 Sur 0 1008 0.1 97
2017-11-16 03:00:00 5 6 Sur 15 Sur 0 1008 0.1 98
2017-11-16 02:00:00 5.4 13 Sur 15 Sur 0 1007.9 -0.3 98
2017-11-16 01:00:00 6 11 Sur 13 Sur 0 1007.9 -0.3 97
2017-11-16 00:00:00 6.6 11 Sur 13 Sur 0 1007.9 -0.1 97
2017-11-15 23:00:00 7.6 11 Sur 21 Sur 0 1008.2 0.2 96
2017-11-15 22:00:00 8.3 9 Sur 24 Sur 0 1008.2 0.4 94
2017-11-15 21:00:00 8.9 8 Sur -- -- 0 1008 0.4 90
2017-11-15 20:00:00 10.7 5 Sur 8 Sur 0 1008 0.8 85
2017-11-15 19:00:00 11.7 0 Calma 11 Norte 0 1007.8 1 83
2017-11-15 18:00:00 13.4 6 Norte 18 Norte 0 1007.6 0.6 77
2017-11-15 17:00:00 15.1 11 Norte 18 Norte 0 1007.2 -0.1 61
2017-11-15 16:00:00 15.8 9 Norte 17 Norte 0 1006.8 -1.1 61
2017-11-15 15:00:00 15.4 9 Norte 17 Norte 0 1007 -1.5 56
2017-11-15 14:00:00 16.2 7 Norte 13 Norte 0 1007.3 -1.1 54
2017-11-15 13:00:00 16.2 2 Nordeste 5 Norte 0 1007.9 0 52
2017-11-15 12:00:00 14.9 3 Sur 17 Sur 0 1008.5 1 57
2017-11-15 11:00:00 10.2 9 Sur 17 Sur 0 1008.4 1.4 75
2017-11-15 10:00:00 6.9 13 Sur 17 Sur 0 1007.9 1.3 86
2017-11-15 09:00:00 5.1 11 Sur 18 Sur 0 1007.5 1 94
2017-11-15 08:00:00 4.9 8 Sur 24 Sudeste 0 1007 0.6 94
2017-11-15 07:00:00 4.9 4 Sur 15 Sur 0 1006.6 0.1 96
2017-11-15 06:00:00 5 7 Sur 13 Sur 0 1006.5 0 95
2017-11-15 05:00:00 5.1 6 Sur 13 Sur 0 1006.4 -0.5 95
2017-11-15 04:00:00 5.5 3 Sur 13 Sur 0 1006.5 -0.8 94
2017-11-15 03:00:00 5.2 9 Sur 15 Sur 0 1006.5 -1 96
2017-11-15 02:00:00 6.5 8 Sur -- -- 0 1006.9 -1 92
2017-11-15 01:00:00 6 5 Sudoeste 9 Sur 0 1007.3 -0.7 92
2017-11-15 00:00:00 6.7 7 Sur 21 Sur 0 1007.5 -0.5 93
2017-11-14 23:00:00 7.2 3 Sur 13 Sur 0 1007.9 -0.2 92
2017-11-14 22:00:00 7.8 8 Sur 21 Sudeste 0 1008 0.2 89
2017-11-14 21:00:00 10 0 Calma 2 Norte 0 1008 0.3 79
2017-11-14 20:00:00 10.7 0 Calma 8 Sur 0 1008.1 0.1 76
2017-11-14 19:00:00 12.2 3 Sur 11 Sudeste 0 1007.8 -0.4 71
2017-11-14 18:00:00 13.5 3 Noroeste 5 Oeste 0 1007.7 -1 62
2017-11-14 17:00:00 15.8 4 Noroeste 9 Norte 0 1008 -1.5 53
2017-11-14 16:00:00 15.3 5 Norte 11 Norte 0 1008.2 -2.2 52
2017-11-14 15:00:00 15.1 3 Norte 13 Norte 0 1008.7 -2.7 52
2017-11-14 14:00:00 14.6 5 Nordeste 13 Norte 0 1009.5 -2.3 53
2017-11-14 13:00:00 14.2 8 Sudeste 24 Sudeste 0 1010.4 -1.6 54
2017-11-14 12:00:00 11.3 2 Noroeste 8 Norte 0 1011.4 -0.6 64
2017-11-14 11:00:00 10 4 Sudeste 11 Este 0 1011.8 -0.2 70
2017-11-14 10:00:00 7.1 6 Sur 30 Este 0 1012 0.1 80
2017-11-14 09:00:00 3.7 6 Sur 21 Sudeste 0 1012 -0.1 95
2017-11-14 08:00:00 2.6 7 Sur 26 Sudeste 0 1012 0.2 95
2017-11-14 07:00:00 3.1 8 Sur 24 Sur 0 1011.9 -0.4 95
2017-11-14 06:00:00 3.5 5 Sur 8 Sudoeste 0 1012.1 -0.6 93
2017-11-14 05:00:00 4 4 Sur 13 Sudeste 0 1011.8 -1 89
2017-11-14 04:00:00 6.4 0 Calma 5 Nordeste 0 1012.3 -1 81
2017-11-14 03:00:00 6.4 3 Norte 11 Norte 0 1012.7 -1 84
2017-11-14 02:00:00 7 0 Calma 4 Nordeste 0 1012.8 -1.4 79
2017-11-14 01:00:00 7.5 0 Calma 2 Sur 0 1013.3 -1 78
2017-11-14 00:00:00 8.2 0 Calma 5 Nordeste 0 1013.7 -0.6 76
2017-11-13 23:00:00 8.8 0 Calma 5 Noroeste 0 1014.2 -0.3 74
2017-11-13 22:00:00 9.4 3 Norte 11 Norte 0 1014.3 0 72
2017-11-13 21:00:00 9.9 4 Norte 15 Nordeste 0 1014.3 0.4 70
2017-11-13 20:00:00 10.3 4 Nordeste 17 Nordeste 0 1014.5 0.9 70
2017-11-13 19:00:00 11 13 Nordeste 18 Nordeste 0 1014.3 0.9 67
2017-11-13 18:00:00 12.2 12 Nordeste 30 Este 0 1013.9 0 60
2017-11-13 17:00:00 13.8 15 Este 28 Este 0 1013.6 -0.8 60
2017-11-13 16:00:00 14.6 18 Nordeste 33 Este 0 1013.4 -1.5 57
2017-11-13 15:00:00 14.8 16 Este 32 Este 0 1013.9 -1.6 56
2017-11-13 14:00:00 14.3 21 Nordeste 32 Nordeste 0 1014.4 -1.2 59
2017-11-13 13:00:00 13.9 14 Nordeste 24 Nordeste 0 1014.9 -0.4 63
2017-11-13 12:00:00 13 15 Nordeste 24 Nordeste 0 1015.5 0.6 68
2017-11-13 11:00:00 11.8 8 Nordeste 15 Norte 0 1015.6 1.2 76
2017-11-13 10:00:00 10.9 2 Nordeste 5 Nordeste 0 1015.3 1 80
2017-11-13 09:00:00 9.7 2 Norte 8 Noroeste 0 1014.9 0.8 87
2017-11-13 08:00:00 9.4 3 Norte 8 Nordeste 0 1014.4 0 89
2017-11-13 07:00:00 10.7 5 Nordeste 22 Este 0 1014.3 0 83
2017-11-13 06:00:00 10.8 5 Este 13 Este 0 1014.1 0 87
2017-11-13 05:00:00 11.5 8 Este 17 Este 0 1014.4 0.4 87
2017-11-13 04:00:00 11.4 5 Norte 17 Nordeste 0 1014.3 0.3 91
2017-11-13 03:00:00 12 6 Norte 21 Nordeste 0 1014.1 0.3 94
2017-11-13 02:00:00 12.8 5 Norte 11 Norte 0 1014 0.2 98
2017-11-13 01:00:00 13.1 3 Norte 5 Norte 0.1 1014 0.3 98
2017-11-13 00:00:00 13.1 0 Calma 8 Norte 0.2 1013.8 0.4 97
2017-11-12 23:00:00 13 0 Calma 5 Oeste 0 1013.8 0.4 96
2017-11-12 22:00:00 12.9 0 Calma 5 Oeste 0 1013.7 0.8 96
2017-11-12 21:00:00 13.3 4 Oeste 8 Oeste 0 1013.4 0.8 97
2017-11-12 20:00:00 13.5 0 Calma 8 Norte 0 1013.4 0.8 97
2017-11-12 19:00:00 13.5 0 Calma 13 Norte 0 1012.9 0.4 96
2017-11-12 18:00:00 13.7 8 Norte 24 Noroeste 0 1012.6 -0.1 95
2017-11-12 17:00:00 13.7 20 Noroeste 35 Norte 0.6 1012.6 -0.3 96
2017-11-12 16:00:00 15.8 9 Noroeste 26 Noroeste 0 1012.5 -0.7 86
2017-11-12 15:00:00 15.5 13 Noroeste 32 Oeste 0.4 1012.7 -1.1 88
2017-11-12 14:00:00 15 8 Oeste 26 Oeste 0.2 1012.9 -1 92
2017-11-12 13:00:00 15 13 Oeste 26 Oeste 0 1013.2 -0.9 88
2017-11-12 12:00:00 14.6 9 Oeste 26 Oeste 0 1013.8 -0.4 84
2017-11-12 11:00:00 14.2 12 Oeste 24 Oeste 0 1013.9 -0.5 81
2017-11-12 10:00:00 13 5 Sur 15 Sur 0 1014.1 -0.3 92
2017-11-12 09:00:00 12.1 9 Sudoeste 15 Oeste 0 1014.2 -0.4 96
2017-11-12 08:00:00 12.2 8 Sudoeste 17 Oeste 0 1014.4 -0.3 94
2017-11-12 07:00:00 12.5 8 Sudoeste 15 Sudoeste 0 1014.4 -0.8 91
2017-11-12 06:00:00 12.3 4 Sur 5 Sur 0 1014.6 -0.7 93
2017-11-12 05:00:00 12.2 3 Sur 17 Oeste 0 1014.7 -1.1 94
2017-11-12 04:00:00 12.7 12 Oeste 17 Oeste 0 1015.2 -1.3 91
2017-11-12 03:00:00 13.1 11 Oeste 17 Oeste 0 1015.3 -1.4 86
2017-11-12 02:00:00 12.2 3 Sur 8 Sur 0 1015.8 -1.4 95
2017-11-12 01:00:00 12.2 5 Sudoeste 11 Sudoeste 0 1016.5 -0.8 96
2017-11-12 00:00:00 12.3 0 Calma 17 Noroeste 0 1016.7 -0.4 95
2017-11-11 23:00:00 12.8 4 Noroeste 11 Oeste 0 1017.2 -0.1 94
2017-11-11 22:00:00 13.3 3 Noroeste 5 Norte 0 1017.3 0 88
2017-11-11 21:00:00 13.3 0 Calma 8 Norte 0 1017.1 -0.3 88
2017-11-11 20:00:00 13.2 0 Calma 13 Sur 0 1017.3 -0.4 90
2017-11-11 19:00:00 13.5 0 Calma 5 Noroeste 0 1017.3 -0.6 88
2017-11-11 18:00:00 13.9 3 Noroeste 11 Noroeste 0 1017.4 -0.9 86
2017-11-11 17:00:00 14.1 4 Norte 11 Norte 0 1017.7 -1.3 86
2017-11-11 16:00:00 14.8 3 Norte 8 Norte 0 1017.9 -1.7 82
2017-11-11 15:00:00 14 6 Norte 17 Nordeste 0 1018.3 -1.9 86
2017-11-11 14:00:00 15 6 Norte 17 Nordeste 0 1019 -1.5 78
2017-11-11 13:00:00 15.1 8 Norte 15 Norte 0 1019.6 -0.9 75
2017-11-11 12:00:00 14.5 3 Sudeste 18 Sudeste 0 1020.2 -0.1 81
2017-11-11 11:00:00 13 3 Sur 8 Sudeste 0 1020.5 0.3 92
2017-11-11 10:00:00 11.8 4 Sur 5 Sur 0 1020.5 0.2 96
2017-11-11 09:00:00 11.5 3 Sur 5 Sur 0 1020.3 0.1 96
2017-11-11 08:00:00 11.3 3 Sur 15 Este 0 1020.2 -0.2 97
2017-11-11 07:00:00 11.4 3 Sur -- -- 0 1020.3 -0.4 97
2017-11-11 06:00:00 11.4 -- -- -- -- 0 1020.2 -0.8 97
2017-11-11 05:00:00 11.5 5 Sur 8 Sur 0 1020.4 -1.1 97
2017-11-11 04:00:00 11.6 2 Sur 5 Sur 0 1020.7 -1 96
2017-11-11 03:00:00 12 2 Sur 4 Sur 0 1021 -1 93
2017-11-11 02:00:00 11.8 0 Calma 5 Sur 0 1021.5 -1 95
2017-11-11 01:00:00 12.1 3 Sur 5 Sur 0 1021.7 -1 94
2017-11-11 00:00:00 12.4 0 Calma 8 Norte 0 1022 -0.6 93
2017-11-10 23:00:00 12.3 3 Norte 18 Norte 0 1022.5 0 92
2017-11-10 22:00:00 13.1 12 Norte 26 Norte 0 1022.7 0.5 90
2017-11-10 21:00:00 13.4 5 Norte 13 Noroeste 0 1022.6 0.6 90
2017-11-10 20:00:00 13.5 5 Norte 13 Norte 0 1022.5 0.5 86
2017-11-10 19:00:00 13.5 8 Norte 22 Norte 0 1022.2 0.5 88
2017-11-10 18:00:00 13.8 11 Norte 22 Norte 0 1022 0.2 83
2017-11-10 17:00:00 14.2 11 Norte 26 Norte 0 1022 -0.2 83
2017-11-10 16:00:00 14.6 12 Norte 26 Norte 0 1021.7 -0.8 83
2017-11-10 15:00:00 14.3 17 Norte 28 Norte 0 1021.8 -1.1 85
2017-11-10 14:00:00 14.2 9 Norte 21 Norte 0 1022.2 -0.7 90
2017-11-10 13:00:00 13.6 9 Norte 32 Norte 0 1022.5 -0.2 93
2017-11-10 12:00:00 13.6 17 Norte 30 Norte 0 1022.9 0.6 94
2017-11-10 11:00:00 13.8 8 Norte 17 Norte 0 1022.9 0.9 97
2017-11-10 10:00:00 13.1 9 Norte 28 Norte 0.2 1022.7 1.1 99
2017-11-10 09:00:00 12.9 9 Norte 18 Norte 0.5 1022.3 1.2 99
2017-11-10 08:00:00 12.5 9 Norte 21 Norte 0.1 1022 1.1 98
2017-11-10 07:00:00 12.3 4 Norte 13 Norte 0.1 1021.6 0.5 98
2017-11-10 06:00:00 12.3 9 Norte 22 Norte 0.4 1021.1 -0.3 98
2017-11-10 05:00:00 11.7 2 Noroeste 8 Sudeste 0.4 1020.9 -0.6 98
2017-11-10 04:00:00 11.2 4 Sur 5 Sur 0 1021.1 -0.7 97
2017-11-10 03:00:00 11.2 2 Sur 4 Sur 0 1021.4 -0.4 96
2017-11-10 02:00:00 11.4 0 Calma 4 Sur 0 1021.5 -0.2 95
2017-11-10 01:00:00 11 0 Calma 4 Oeste 0 1021.8 0.4 95
2017-11-10 00:00:00 11.4 2 Noroeste 8 Noroeste 0 1021.8 0.6 93
2017-11-09 23:00:00 11.4 3 Oeste 5 Norte 0 1021.7 1 94
2017-11-09 22:00:00 11.7 0 Calma 8 Norte 0 1021.4 1.3 93
2017-11-09 21:00:00 11.9 5 Norte 30 Nordeste 0.2 1021.2 1.7 93
2017-11-09 20:00:00 12.6 11 Norte 24 Norte 0 1020.7 1.5 95
2017-11-09 19:00:00 12.4 0 Calma 13 Norte 0 1020.1 1.1 94
2017-11-09 18:00:00 12.5 8 Norte 15 Norte 0.1 1019.5 0.5 95
2017-11-09 17:00:00 12.8 4 Norte 17 Noroeste 0 1019.2 0.1 94
2017-11-09 16:00:00 12.8 8 Norte 17 Norte 0 1019 -0.4 93
2017-11-09 15:00:00 12.8 6 Norte 15 Norte 0 1019 -0.7 95
2017-11-09 14:00:00 13.1 3 Norte 8 Norte 0 1019.1 -0.6 91
2017-11-09 13:00:00 12.4 0 Calma 4 Noroeste 0 1019.4 -0.5 94
2017-11-09 12:00:00 11.5 0 Calma 4 Sur 0 1019.7 0.3 98
2017-11-09 11:00:00 10.2 2 Sur 8 Sur 0.2 1019.7 0.7 98
2017-11-09 10:00:00 9.5 0 Calma 5 Sudeste 0.6 1019.9 1 98
2017-11-09 09:00:00 8.7 4 Sur 5 Sur 0.1 1019.4 0.9 98
2017-11-09 08:00:00 9 3 Sur 5 Sur 1.1 1019 0.4 98
2017-11-09 07:00:00 7.9 6 Sur 15 Este 0.4 1018.9 0.2 98
2017-11-09 06:00:00 7.6 4 Sur 13 Sur 0 1018.5 -0.1 98
2017-11-09 05:00:00 7.8 4 Sur 13 Sur 0 1018.6 0 98
2017-11-09 04:00:00 7.1 8 Sur 13 Sudeste 0 1018.7 0 98
2017-11-09 03:00:00 7.1 3 Sur 5 Sur 0 1018.6 -0.1 98
2017-11-09 02:00:00 6.9 0 Calma 13 Sur 0 1018.6 -0.1 98
2017-11-09 01:00:00 6.4 7 Sur 11 Sur 0 1018.7 0.2 97
2017-11-09 00:00:00 7.3 5 Sur 5 Sur 0 1018.7 0.5 96
2017-11-08 23:00:00 8.6 0 Calma 4 Sur 0 1018.7 0.5 93
2017-11-08 22:00:00 8.8 4 Sur 11 Sur 0 1018.5 0.7 93
2017-11-08 21:00:00 10 0 Calma 4 Norte 0 1018.2 0.7 88
2017-11-08 20:00:00 11.2 0 Calma 8 Nordeste 0 1018.2 1 82
2017-11-08 19:00:00 11.6 4 Nordeste 15 Norte 0 1017.8 0.8 77
2017-11-08 18:00:00 12.5 11 Nordeste 26 Norte 0 1017.5 0.2 73
2017-11-08 17:00:00 13 17 Norte 32 Nordeste 0 1017.2 0 69
2017-11-08 16:00:00 13.3 16 Norte 32 Norte 0 1017 -0.7 72
2017-11-08 15:00:00 13.3 12 Norte 24 Norte 0 1017.3 -0.8 76
2017-11-08 14:00:00 13.3 9 Norte 26 Norte 0.3 1017.2 -1 76
2017-11-08 13:00:00 12.8 6 Norte 13 Norte 0 1017.7 -0.1 78
2017-11-08 12:00:00 10.7 5 Noroeste 15 Sur 0.2 1018.1 0.7 88
2017-11-08 11:00:00 7.4 5 Sur 13 Este 0.9 1018.2 1.3 98
2017-11-08 10:00:00 6.3 3 Sur 17 Sur 0.1 1017.8 0.9 98
2017-11-08 09:00:00 4.5 5 Sur 18 Sudeste 0 1017.4 0.9 98
2017-11-08 08:00:00 4.5 10 Sur 18 Sudeste 0 1016.9 0.4 98
2017-11-08 07:00:00 4.9 9 Sur 15 Sur 0 1016.9 0.5 98
2017-11-08 06:00:00 5.2 5 Sur 13 Sudeste 0 1016.5 0.2 98
2017-11-08 05:00:00 5.8 7 Sur 13 Sur 0 1016.5 0.3 98
2017-11-08 04:00:00 5.7 7 Sur 11 Sur 0 1016.4 0.5 97
2017-11-08 03:00:00 6.7 3 Sur 5 Sur 0 1016.3 0.6 94
2017-11-08 02:00:00 8.7 0 Calma 5 Norte 0 1016.2 0.8 88
2017-11-08 01:00:00 10.3 3 Nordeste 17 Norte 0 1015.9 0.9 78
2017-11-08 00:00:00 10.8 5 Nordeste 15 Noroeste 0.6 1015.7 0.9 83
2017-11-07 23:00:00 10.6 8 Nordeste 26 Nordeste 0 1015.4 1.3 84
2017-11-07 22:00:00 10.9 8 Nordeste 28 Nordeste 0.4 1015 1.3 85
2017-11-07 21:00:00 11.8 12 Nordeste 24 Nordeste 0 1014.8 1.8 79
2017-11-07 20:00:00 12.8 13 Norte 32 Norte 0 1014.1 1.4 74
2017-11-07 19:00:00 12.3 6 Norte 26 Norte 0 1013.7 1.5 78
2017-11-07 18:00:00 13.4 15 Norte 32 Norte 0 1013 1 72
2017-11-07 17:00:00 13.7 19 Norte 32 Noroeste 0 1012.7 1 69
2017-11-07 16:00:00 13.6 15 Norte 26 Norte 0 1012.2 0.4 76
2017-11-07 15:00:00 12.7 5 Norte 13 Nordeste 0 1012 0.8 94
2017-11-07 14:00:00 11.5 3 Norte 13 Sur 0.3 1011.7 0.9 95
2017-11-07 13:00:00 10.6 5 Nordeste 24 Sudeste 0.2 1011.8 1 91
2017-11-07 12:00:00 10.3 8 Sur 22 Sudeste 0 1011.2 0.3 88
2017-11-07 11:00:00 8.4 14 Sur 21 Sur 0 1010.8 0.3 96
2017-11-07 10:00:00 6 14 Sur 18 Sur 0 1010.8 0.3 99
2017-11-07 09:00:00 4.2 8 Sur 28 Sur 0 1010.9 0.4 99
2017-11-07 08:00:00 3.2 12 Sur 18 Sur 0 1010.5 0.1 99
2017-11-07 07:00:00 3.3 6 Sur 24 Sur 0 1010.5 0.1 99
2017-11-07 06:00:00 3 12 Sur 15 Sur 0 1010.5 -0.1 99
2017-11-07 05:00:00 3.5 5 Sur 15 Sur 0 1010.4 -0.8 99
2017-11-07 04:00:00 3.8 10 Sur 15 Sur 0 1010.4 -1.1 99
2017-11-07 03:00:00 4.3 11 Sur 15 Sur 0 1010.6 -1.4 98
2017-11-07 02:00:00 5.1 7 Sur 11 Sur 0 1011.2 -1.4 98
2017-11-07 01:00:00 5.8 5 Sur 8 Sur 0 1011.5 -1.3 98
2017-11-07 00:00:00 6.7 8 Sur 11 Sur 0 1012 -0.9 97
2017-11-06 23:00:00 7.7 5 Sur 13 Sur 0 1012.6 -0.4 96
2017-11-06 22:00:00 9.3 2 Sur 9 Sudeste 0 1012.8 -0.1 87
2017-11-06 21:00:00 10.7 3 Oeste 5 Oeste 0 1012.9 -0.2 81
2017-11-06 20:00:00 11.7 3 Nordeste 11 Nordeste 0 1013 -0.6 79
2017-11-06 19:00:00 12.4 4 Norte 11 Norte 0 1012.9 -0.9 80
2017-11-06 18:00:00 13.6 5 Norte 18 Norte 0 1013.1 -1.2 75
2017-11-06 17:00:00 14.4 8 Norte 18 Norte 0 1013.6 -1.4 71
2017-11-06 16:00:00 14.1 6 Norte 21 Norte 0 1013.8 -2 74
2017-11-06 15:00:00 14.3 7 Norte 17 Nordeste 0 1014.3 -2.2 71
2017-11-06 14:00:00 13.6 9 Norte 18 Norte 0 1015 -2.1 78
2017-11-06 13:00:00 13.5 5 Norte 21 Este 0 1015.8 -1.4 78
2017-11-06 12:00:00 11.8 3 Sudeste 8 Este 0 1016.5 -0.8 94
2017-11-06 11:00:00 9.7 3 Sur 11 Sudeste 0 1017.1 0.3 99
2017-11-06 10:00:00 6.4 7 Sur 11 Sur 0 1017.2 0.3 99
2017-11-06 09:00:00 5.5 4 Sur 13 Sur 0 1017.3 0.3 99
2017-11-06 08:00:00 5.7 6 Sur 18 Sur 0 1016.8 -0.4 99
2017-11-06 07:00:00 6 7 Sur 21 Sur 0 1016.9 -0.4 99
2017-11-06 06:00:00 6.6 7 Sur 11 Sur 0 1017 -0.6 99
2017-11-06 05:00:00 7.1 5 Sur 11 Sur 0 1017.2 -0.6 98
2017-11-06 04:00:00 7.8 4 Sur 8 Sur 0 1017.3 -0.7 98
2017-11-06 03:00:00 8.6 5 Sur 13 Sur 0 1017.6 -0.6 98
2017-11-06 02:00:00 8.6 4 Sudoeste -- -- 0 1017.8 -0.3 98
2017-11-06 01:00:00 9.4 5 Sur 8 Sur 0 1018 0.1 97
2017-11-06 00:00:00 10 5 Sur 11 Sur 0 1018.2 0.5 96
2017-11-05 23:00:00 10.1 5 Sur 9 Sudeste 0 1018.1 0.4 95
2017-11-05 22:00:00 10.7 2 Oeste 11 Norte 0.5 1017.9 0.6 93
2017-11-05 21:00:00 11.8 0 Calma 8 Este 0 1017.7 0.7 83
2017-11-05 20:00:00 12.4 7 Nordeste 18 Noroeste 0 1017.7 0.9 77
2017-11-05 19:00:00 12.5 2 Norte 13 Norte 0 1017.3 0.7 79
2017-11-05 18:00:00 12.5 5 Norte 28 Nordeste 0 1017 0.5 77
2017-11-05 17:00:00 13.4 8 Norte 24 Norte 0 1016.8 0 72
2017-11-05 16:00:00 13.9 13 Norte 30 Noroeste 0 1016.6 -0.2 69
2017-11-05 15:00:00 14.1 14 Norte 26 Norte 0 1016.5 -0.5 65
2017-11-05 14:00:00 13.4 18 Noroeste 32 Noroeste 0 1016.8 0 72
2017-11-05 13:00:00 14.2 20 Noroeste 32 Noroeste 0 1016.8 0.4 68
2017-11-05 12:00:00 14.2 8 Norte 18 Norte 0 1017 1.2 69
2017-11-05 11:00:00 12.7 2 Sudeste 13 Sudeste 0 1016.8 1.8 81
2017-11-05 10:00:00 10.2 6 Sur 17 Este 0 1016.4 1.9 91
2017-11-05 09:00:00 8.6 6 Sudeste 13 Este 0 1015.8 1.7 97
2017-11-05 08:00:00 8.5 5 Sur 11 Sudoeste 0 1015 1.6 95
2017-11-05 07:00:00 9.2 6 Sudoeste 13 Sur 0 1014.5 1.1 94
2017-11-05 06:00:00 9.7 0 Calma 11 Sur 0 1014.1 1.1 90
2017-11-05 05:00:00 9.3 4 Sur 21 Noroeste 0 1013.4 0.6 88
2017-11-05 04:00:00 12.6 14 Norte 22 Norte 0 1013.4 1 66
2017-11-05 03:00:00 12.8 12 Norte 26 Norte 0 1013 1.3 70
2017-11-05 02:00:00 13.1 14 Norte 33 Norte 0 1012.8 1.7 65
2017-11-05 01:00:00 13.4 18 Norte 37 Norte 0 1012.4 2 65
2017-11-05 00:00:00 13.5 18 Norte 37 Norte 0 1011.7 2 65
2017-11-04 23:00:00 13.4 23 Norte 41 Norte 0 1011.1 2.3 71
2017-11-04 22:00:00 13 14 Norte 41 Norte 0 1010.4 2.6 79
2017-11-04 21:00:00 12.7 16 Norte 45 Norte 0.1 1009.7 3 84
2017-11-04 20:00:00 13.7 14 Norte 35 Norte 0 1008.8 3.2 76
2017-11-04 19:00:00 13.6 21 Norte 37 Norte 0 1007.8 3.5 78
2017-11-04 18:00:00 14.2 20 Norte 33 Norte 0 1006.7 3.5 73
2017-11-04 17:00:00 13.1 20 Norte 48 Norte 0 1005.6 2.7 90
2017-11-04 16:00:00 13.2 26 Norte 52 Noroeste 0.1 1004.3 1.5 95
2017-11-04 15:00:00 16 19 Norte 30 Norte 0 1003.2 0.4 80
2017-11-04 14:00:00 16 15 Norte 26 Noroeste 0 1002.9 0.9 81
2017-11-04 13:00:00 15.9 8 Norte 18 Norte 0 1002.8 1.4 84
2017-11-04 12:00:00 15 4 Norte 9 Norte 0 1002.8 2.4 91
2017-11-04 11:00:00 13.5 0 Calma 4 Sur 0.1 1002 2.3 97
2017-11-04 10:00:00 12.6 3 Norte 8 Norte 1.7 1001.4 2.3 98
2017-11-04 09:00:00 11.7 4 Sur 8 Sur 0 1000.4 1.6 98
2017-11-04 08:00:00 11.7 2 Sur 17 Sur 0 999.7 1.5 98
2017-11-04 07:00:00 11.4 6 Sur 18 Sudeste 0 999.1 1 98
2017-11-04 06:00:00 11.7 0 Calma 5 Noroeste 0 998.8 0.8 98
2017-11-04 05:00:00 11.8 3 Sur 13 Sur 0 998.2 0 98
2017-11-04 04:00:00 12 6 Sudoeste 8 Sudoeste 0 998.1 -0.3 97
2017-11-04 03:00:00 12.6 0 Calma 5 Noroeste 0 998 -0.2 97
2017-11-04 02:00:00 12.5 0 Calma 4 Noroeste 0 998.2 -0.3 97
2017-11-04 01:00:00 13 0 Calma -- -- 0 998.4 0.1 97
2017-11-04 00:00:00 13.1 0 Calma -- -- 0 998.2 0.1 96
2017-11-03 23:00:00 13.4 0 Calma 5 Sur 0.1 998.5 0.5 96
2017-11-03 22:00:00 13.6 7 Sur 17 Sudeste 0.1 998.3 0.6 95
2017-11-03 21:00:00 14.3 4 Sur 11 Sudeste 0.1 998.1 0.7 90
2017-11-03 20:00:00 14.8 2 Sur 8 Sudeste 0 998 0.4 86
2017-11-03 19:00:00 15.4 3 Sur 22 Sudeste 0 997.7 0.4 82
2017-11-03 18:00:00 16.1 4 Sudeste 17 Sudoeste 0 997.4 0 79
2017-11-03 17:00:00 16.8 12 Sudoeste 32 Sudoeste 0 997.6 -0.2 71
2017-11-03 16:00:00 17.3 11 Sur 18 Sur 0 997.3 -0.7 69
2017-11-03 15:00:00 17.5 4 Sur 17 Sudoeste 0 997.4 -1 69
2017-11-03 14:00:00 17.2 2 Este 28 Sudeste 0 997.8 -0.7 69
2017-11-03 13:00:00 16.9 6 Sudeste 28 Sudeste 0 998 -0.6 69
2017-11-03 12:00:00 15.8 11 Sur 24 Sudeste 0 998.4 0.2 76
2017-11-03 11:00:00 14.1 12 Sudeste 24 Sudeste 0 998.5 1.1 83
2017-11-03 10:00:00 13.1 8 Sudeste 18 Sur 0 998.6 0.7 85
2017-11-03 09:00:00 13.3 5 Este 26 Sur 0 998.2 0.2 83
2017-11-03 08:00:00 13.7 15 Sudeste 42 Sudoeste 0 997.4 -0.9 82
2017-11-03 07:00:00 12.5 9 Sur 18 Sur 0 997.9 -0.9 88
2017-11-03 06:00:00 12.7 10 Sudeste 15 Sudeste 0 998 -0.8 88
2017-11-03 05:00:00 12.4 3 Sur 15 Sudeste 0 998.3 -1.2 91
2017-11-03 04:00:00 12.7 0 Calma 8 Sudeste 0 998.8 -1.3 90
2017-11-03 03:00:00 13.2 2 Sudeste 17 Sur 0 998.8 -1.4 86
2017-11-03 02:00:00 12.6 10 Sur 15 Sur 0 999.5 -0.9 93
2017-11-03 01:00:00 13.2 12 Sudeste 15 Sudeste 0 1000.1 -0.4 90
2017-11-03 00:00:00 12.7 6 Sudeste 13 Sudeste 0 1000.2 -0.5 95
2017-11-02 23:00:00 13.1 6 Sudeste 18 Sudeste 0 1000.4 -0.2 97
2017-11-02 22:00:00 13.9 6 Sur 24 Sur 0 1000.5 0.6 95
2017-11-02 21:00:00 14.6 7 Sudoeste 18 Sur 6.7 1000.7 1.1 91
2017-11-02 20:00:00 15.9 10 Sur 24 Sur 0.3 1000.6 1 82
2017-11-02 19:00:00 16.2 13 Sur 26 Sudoeste 0 999.9 0.3 80
2017-11-02 18:00:00 17.1 9 Sur 22 Sur 0 999.6 0.2 74
2017-11-02 17:00:00 18.9 17 Sur 28 Sur 0 999.6 -0.2 67
2017-11-02 16:00:00 19.2 18 Sur 35 Sur 0 999.6 -0.7 66
2017-11-02 15:00:00 19.6 27 Sur 41 Sur 0 999.4 -1.6 65
2017-11-02 14:00:00 18.4 22 Sur 39 Sur 0 999.8 -2.3 70
2017-11-02 13:00:00 15.3 14 Sur 24 Sur 0 1000.3 -1.8 85
2017-11-02 12:00:00 13.9 15 Sudeste 37 Este 1.1 1001 -0.2 94
2017-11-02 11:00:00 13.3 15 Sudeste 32 Este 4.1 1002.1 1.5 94
2017-11-02 10:00:00 14 15 Oeste 32 Oeste 4 1002.1 1.5 90
2017-11-02 09:00:00 14.6 2 Noroeste 4 Noroeste 0 1001.2 0.5 93
2017-11-02 08:00:00 15.1 0 Calma 28 Sudeste 0 1000.6 -0.6 89
2017-11-02 07:00:00 15.4 7 Sudeste 28 Sudeste 0 1000.6 -0.7 88
2017-11-02 06:00:00 14.6 6 Sur 17 Sudeste 0 1000.7 -0.8 94
2017-11-02 05:00:00 14.6 8 Sudeste 17 Sudeste 0.3 1001.2 -0.3 95
2017-11-02 04:00:00 15.1 10 Sudeste 15 Sur 0.6 1001.3 -0.4 91
2017-11-02 03:00:00 16.4 9 Sur 17 Sur 0 1001.5 -0.6 77
2017-11-02 02:00:00 16.9 5 Sur 8 Sudoeste 0 1001.5 -0.1 69
2017-11-02 01:00:00 16.8 4 Sur 15 Oeste 0 1001.7 -0.2 71
2017-11-02 00:00:00 17.8 6 Oeste 17 Sudoeste 0 1002.1 0.2 64
2017-11-01 23:00:00 17.1 7 Sur 17 Sudeste 0 1001.6 -0.5 70
2017-11-01 22:00:00 17.5 3 Sudeste 11 Sudeste 0 1001.9 -0.5 68
2017-11-01 21:00:00 16.9 5 Sudeste 24 Sudoeste 0 1001.9 -0.1 75
2017-11-01 20:00:00 18 12 Sur 21 Sudeste 0 1002.1 -0.1 69
2017-11-01 19:00:00 18.2 8 Sur 26 Sur 0 1002.4 0 68
2017-11-01 18:00:00 18.7 17 Sur 30 Sur 0 1002 -0.5 66
2017-11-01 17:00:00 19.1 18 Sur 37 Sur 0 1002.2 -0.7 64
2017-11-01 16:00:00 19.4 18 Sur 32 Sudoeste 0 1002.4 -1 64
2017-11-01 15:00:00 19.5 16 Sur 33 Sudoeste 0 1002.5 -1.6 64
2017-11-01 14:00:00 19.6 17 Sur 30 Sur 0 1002.9 -1.2 59
2017-11-01 13:00:00 19.3 18 Sur 37 Sur 0 1003.4 -0.9 56
2017-11-01 12:00:00 18.4 14 Sur 30 Sur 0 1004.1 0.3 52
2017-11-01 11:00:00 17.1 21 Sur 33 Sudeste 0 1004.1 0.8 51
2017-11-01 10:00:00 15.8 19 Sur 24 Sur 0 1004.3 1.4 57
2017-11-01 09:00:00 14.3 19 Sur 30 Sur 0 1003.8 0.9 62
2017-11-01 08:00:00 15.2 18 Sur 33 Sur 0 1003.3 0.1 56
2017-11-01 07:00:00 14.9 20 Sur 28 Sur 0 1002.9 -0.5 55
2017-11-01 06:00:00 14.4 8 Sur 21 Sur 0 1002.9 -0.6 56
2017-11-01 05:00:00 15.1 16 Sur 32 Sur 0 1003.2 -0.5 53
2017-11-01 04:00:00 13.8 19 Sur 30 Sur 0 1003.4 -0.8 60
2017-11-01 03:00:00 12.8 15 Sudeste 22 Sudeste 0 1003.5 -1 62
2017-11-01 02:00:00 12.2 16 Sur 24 Sudeste 0 1003.7 -1.3 67
2017-11-01 01:00:00 13 17 Sudeste 24 Sudeste 0 1004.2 -1 65
2017-11-01 00:00:00 10.7 12 Sur 22 Sudeste 0 1004.5 -0.7 87
2017-10-31 23:00:00 11.2 14 Sur 22 Sudeste 0 1005 -0.2 86
2017-10-31 22:00:00 11.6 6 Sur 17 Sur 0 1005.2 0.2 88
2017-10-31 21:00:00 13.1 5 Sur 13 Sur 0 1005.2 0.2 82
2017-10-31 20:00:00 14.1 6 Sur 17 Sur 0 1005.2 0.4 77
2017-10-31 19:00:00 15.8 0 Calma 8 Norte 0 1005 0.4 68
2017-10-31 18:00:00 17.7 4 Norte 8 Norte 0 1005 -0.1 62
2017-10-31 17:00:00 20.8 4 Sur 26 Sudeste 0 1004.8 -0.8 42
2017-10-31 16:00:00 19.4 5 Nordeste 21 Sur 0 1004.6 -1.4 54
2017-10-31 15:00:00 20.8 10 Sur 22 Sudeste 0 1005.1 -1.8 40
2017-10-31 14:00:00 20.4 13 Sudeste 24 Este 0 1005.6 -1.5 46
2017-10-31 13:00:00 18.5 13 Sudeste 30 Sudeste 0 1006 -1.7 53
2017-10-31 12:00:00 16.3 12 Sudeste 24 Sudeste 0 1006.9 -0.4 57
2017-10-31 11:00:00 14.2 15 Sudeste 32 Sudeste 0 1007.1 0.2 63
2017-10-31 10:00:00 11.3 14 Sur 30 Sur 0 1007.7 0.6 74
2017-10-31 09:00:00 7.7 16 Sur 21 Sur 0 1007.3 -0.2 87
2017-10-31 08:00:00 6.1 13 Sur 28 Sudeste 0 1006.9 -0.6 94
2017-10-31 07:00:00 7 5 Sur 24 Norte 0 1007.1 -0.8 91
2017-10-31 06:00:00 7.9 6 Sur 11 Nordeste 0 1007.5 -0.8 88
2017-10-31 05:00:00 8.1 6 Sur 11 Sur 0 1007.5 -1.2 89
2017-10-31 04:00:00 10.1 0 Calma 4 Este 0 1007.9 -0.9 82
2017-10-31 03:00:00 10.5 0 Calma 5 Sur 0 1008.3 -0.7 82
2017-10-31 02:00:00 12 2 Sudeste 8 Sur 0 1008.7 -0.6 76
2017-10-31 01:00:00 12.7 7 Este 24 Este 0 1008.8 -0.5 73
2017-10-31 00:00:00 13.6 10 Nordeste 22 Este 0 1009 -0.2 71
2017-10-30 23:00:00 14.4 15 Este 28 Este 0 1009.3 0 69
2017-10-30 22:00:00 14.8 16 Este 30 Nordeste 0 1009.3 -0.1 69
2017-10-30 21:00:00 14.7 15 Nordeste 22 Nordeste 0 1009.2 0 72
2017-10-30 20:00:00 15.3 4 Nordeste 15 Este 0 1009.3 0 69
2017-10-30 19:00:00 15.9 9 Este 28 Este 0 1009.4 -0.1 66
2017-10-30 18:00:00 17.3 12 Este 28 Este 0 1009.2 -0.8 63
2017-10-30 17:00:00 18.3 14 Este 37 Este 0 1009.3 -1.2 61
2017-10-30 16:00:00 18.4 22 Este 37 Este 0 1009.5 -1.6 59
2017-10-30 15:00:00 18 15 Nordeste 37 Nordeste 0 1010 -2.1 64
2017-10-30 14:00:00 18 23 Nordeste 41 Nordeste 0 1010.5 -1.7 63
2017-10-30 13:00:00 17 20 Nordeste 32 Norte 0 1011.1 -1.2 67
2017-10-30 12:00:00 16.2 17 Nordeste 28 Nordeste 0 1012.1 0 71
2017-10-30 11:00:00 15.3 14 Nordeste 33 Nordeste 0 1012.2 0.3 78
2017-10-30 10:00:00 14.9 16 Nordeste 28 Nordeste 0 1012.3 0.3 84
2017-10-30 09:00:00 14.2 5 Norte 21 Nordeste 0 1012.1 0 89
2017-10-30 08:00:00 14.2 13 Nordeste 21 Nordeste 0 1011.9 -0.4 91
2017-10-30 07:00:00 14.1 10 Nordeste 21 Nordeste 0 1012 -0.5 90
2017-10-30 06:00:00 13.8 13 Nordeste 21 Nordeste 0 1012.1 -0.6 89
2017-10-30 05:00:00 14.3 12 Nordeste 21 Nordeste 0 1012.3 -0.8 85
2017-10-30 04:00:00 14.1 8 Norte 18 Norte 0 1012.5 -0.8 85
2017-10-30 03:00:00 14.3 5 Norte 21 Nordeste 0 1012.7 -0.7 83
2017-10-30 02:00:00 14.8 13 Nordeste 24 Norte 0 1013.1 -0.5 77
2017-10-30 01:00:00 15.3 9 Norte 26 Norte 0 1013.3 -0.2 75
2017-10-30 00:00:00 15.3 13 Nordeste 26 Nordeste 0 1013.4 -0.1 77
2017-10-29 23:00:00 14.9 10 Norte 22 Nordeste 0 1013.6 -0.1 83
2017-10-29 22:00:00 14.6 8 Nordeste 18 Nordeste 0 1013.5 -0.1 83
2017-10-29 21:00:00 15.2 11 Nordeste 21 Norte 0 1013.5 0.1 80
2017-10-29 20:00:00 16.1 9 Nordeste 28 Este 0 1013.7 0.3 78
2017-10-29 19:00:00 16.7 14 Nordeste 32 Nordeste 0 1013.6 0.2 74
2017-10-29 18:00:00 17 12 Nordeste 28 Nordeste 0 1013.4 -0.1 74
2017-10-29 17:00:00 18.4 21 Nordeste 33 Este 0 1013.4 -0.5 66
2017-10-29 16:00:00 19.6 14 Nordeste 33 Nordeste 0 1013.4 -1.3 62
2017-10-29 15:00:00 19.6 23 Nordeste 33 Nordeste 0 1013.5 -1.9 61
2017-10-29 14:00:00 19.8 16 Nordeste 32 Norte 0 1013.9 -1.5 61
2017-10-29 13:00:00 19.1 14 Nordeste 24 Norte 0 1014.7 -0.6 65
2017-10-29 12:00:00 16.9 7 Norte 15 Noroeste 0 1015.4 0.4 75
2017-10-29 11:00:00 13.9 0 Calma 11 Sudeste 0 1015.4 0.8 91
2017-10-29 10:00:00 9.5 5 Sur 8 Sur 0 1015.3 0.8 98
2017-10-29 09:00:00 7.6 5 Sur 11 Sur 0 1015 0.5 99
2017-10-29 08:00:00 6.9 4 Sur 8 Sur 0 1014.6 0.1 99
2017-10-29 07:00:00 7.4 6 Sur 13 Sur 0 1014.5 -0.2 98
2017-10-29 06:00:00 7.8 9 Sur 13 Sur 0 1014.5 -0.4 98
2017-10-29 05:00:00 8.2 4 Sudoeste 11 Sur 0 1014.5 -0.7 98
2017-10-29 04:00:00 8.8 4 Sur 5 Sur 0 1014.7 -0.8 97
2017-10-29 03:00:00 10 4 Sur 11 Sur 0 1014.9 -0.5 97
2017-10-29 02:00:00 9.9 5 Sur 11 Sur 0 1015.2 -0.3 96
2017-10-29 01:00:00 12 4 Sur 5 Sur 0 1015.4 0.1 90
2017-10-29 00:00:00 13 0 Calma 4 Noroeste 0 1015.5 0 90
2017-10-28 23:00:00 13.5 0 Calma 8 Sur 0 1015.3 0 90
2017-10-28 22:00:00 15.4 0 Calma 5 Noroeste 0 1015.3 0.5 81
2017-10-28 21:00:00 16.1 4 Noroeste 11 Noroeste 0 1015.5 0.8 79
2017-10-28 20:00:00 17.3 6 Noroeste 13 Noroeste 0 1015.3 0.6 75
2017-10-28 19:00:00 19.2 7 Norte 18 Noroeste 0 1014.8 -0.1 68
2017-10-28 18:00:00 20.4 9 Norte 22 Norte 0 1014.7 -0.7 65
2017-10-28 17:00:00 20.7 12 Norte 21 Noroeste 0 1014.7 -1.5 65
2017-10-28 16:00:00 21.6 11 Norte 21 Norte 0 1014.9 -2 61
2017-10-28 15:00:00 20.8 7 Norte 17 Norte 0 1015.4 -1.7 63
2017-10-28 14:00:00 19.7 7 Norte 15 Noroeste 0 1016.2 -1.2 69
2017-10-28 13:00:00 17.6 2 Norte 5 Noroeste 0 1016.9 -0.7 76
2017-10-28 12:00:00 15.6 0 Calma 4 Sur 0 1017.1 -0.1 85
2017-10-28 11:00:00 12.4 0 Calma 15 Sur 0 1017.4 0.2 98
2017-10-28 10:00:00 9.1 5 Sur 8 Sur 0 1017.6 0.2 98
2017-10-28 09:00:00 8.8 4 Sur 8 Sur 0 1017.2 -0.4 98
2017-10-28 08:00:00 9.2 5 Sur 13 Sur 0 1017.2 -0.5 98
2017-10-28 07:00:00 10.3 8 Sur 18 Sur 0 1017.4 -0.8 98
2017-10-28 06:00:00 10.1 -- -- -- -- 0 1017.6 -0.7 97
2017-10-28 05:00:00 11.3 0 Calma 5 Sur 0 1017.7 -0.8 97
2017-10-28 04:00:00 12 4 Sur -- -- 0 1018.2 -0.6 97
2017-10-28 03:00:00 12.4 5 Sur 8 Sur 0 1018.3 -1 96
2017-10-28 02:00:00 13.4 0 Calma 4 Sur 0 1018.5 -0.7 95
2017-10-28 01:00:00 14.2 4 Sur 8 Sur 0 1018.8 -0.2 93
2017-10-28 00:00:00 15.4 0 Calma 2 Noroeste 0 1019.3 0.6 89
2017-10-27 23:00:00 16.5 0 Calma 4 Noroeste 0 1019.2 0.9 86
2017-10-27 22:00:00 17.3 2 Noroeste 4 Noroeste 0 1019 0.9 82
2017-10-27 21:00:00 18.9 0 Calma 11 Norte 0 1018.7 0.7 75
2017-10-27 20:00:00 20 4 Norte 11 Norte 0 1018.3 0.1 67
2017-10-27 19:00:00 22.4 3 Norte 15 Norte 0 1018.1 0 57
2017-10-27 18:00:00 23.8 6 Noroeste 17 Norte 0 1018 -0.7 54
2017-10-27 17:00:00 23.1 12 Nordeste 17 Norte 0 1018.2 -1.1 57
2017-10-27 16:00:00 25.4 5 Norte 9 Norte 0 1018.1 -1.2 45
2017-10-27 15:00:00 23.8 3 Nordeste 8 Nordeste 0 1018.7 -0.7 53
2017-10-27 14:00:00 24.2 0 Calma 8 Sur 0 1019.3 0.3 50
2017-10-27 13:00:00 21.2 5 Sur 35 Sudeste 0 1019.3 1 60
2017-10-27 12:00:00 18.1 4 Sur 15 Sur 0 1019.4 1.6 72
2017-10-27 11:00:00 14.7 6 Sur 17 Sudeste 0 1019 1.6 84
2017-10-27 10:00:00 11.8 6 Sur 28 Sudeste 0 1018.3 1.2 94
2017-10-27 09:00:00 10.9 11 Sur 18 Sur 0 1017.8 1.2 97
2017-10-27 08:00:00 11.1 10 Sur 22 Sur 0 1017.4 0.9 97
2017-10-27 07:00:00 11.6 11 Sur 15 Sur 0 1017.1 0.6 96
2017-10-27 06:00:00 11.6 12 Sur 15 Sur 0 1016.6 0.1 97
2017-10-27 05:00:00 11.7 9 Sur 13 Sur 0 1016.5 -0.1 97
2017-10-27 04:00:00 12 6 Sur 13 Sur 0 1016.5 -0.1 97
2017-10-27 03:00:00 12.7 8 Sur 15 Sur 0 1016.5 -0.2 96
2017-10-27 02:00:00 12.8 11 Sur 13 Sur 0 1016.6 0.1 96
2017-10-27 01:00:00 13.5 6 Sur 13 Sur 0 1016.6 0.7 96
2017-10-27 00:00:00 14.2 11 Sur 22 Sudeste 0 1016.7 1.1 94
2017-10-26 23:00:00 15.1 7 Sur 17 Sur 0 1016.5 1.5 91
2017-10-26 22:00:00 15.9 8 Sur -- -- 0 1015.9 1.7 89
2017-10-26 21:00:00 16.4 0 Calma 4 Noroeste 0 1015.6 2 88
2017-10-26 20:00:00 17.2 4 Nordeste 13 Norte 0 1015 1.6 85
2017-10-26 19:00:00 18.8 7 Norte 17 Norte 0 1014.2 0.9 77
2017-10-26 18:00:00 21.3 8 Nordeste 18 Norte 0 1013.6 0.2 66
2017-10-26 17:00:00 23.6 9 Norte 22 Sur 0 1013.4 -0.2 55
2017-10-26 16:00:00 24.9 12 Sur 30 Sur 0 1013.3 -0.2 49
2017-10-26 15:00:00 24.4 10 Sur 28 Sur 0 1013.4 -0.2 52
2017-10-26 14:00:00 23.3 19 Sur 28 Sur 0 1013.6 0.2 54
2017-10-26 13:00:00 22.7 21 Sur 32 Sudoeste 0 1013.5 0.7 57
2017-10-26 12:00:00 20.7 17 Sudeste 28 Sudeste 0 1013.6 1.8 64
2017-10-26 11:00:00 19.8 19 Sur 30 Sur 0 1013.4 2.1 68
2017-10-26 10:00:00 17.4 15 Sur 26 Sur 0 1012.8 2 75
2017-10-26 09:00:00 17.3 13 Sur 39 Sur 0 1011.8 1.2 76
2017-10-26 08:00:00 17.3 21 Sur 35 Sur 0 1011.3 0.7 76
2017-10-26 07:00:00 15.8 14 Sur 22 Sur 0 1010.8 0 80
2017-10-26 06:00:00 15.4 14 Sur 21 Sur 0 1010.6 0.2 81
2017-10-26 05:00:00 12.7 5 Sur 18 Sudeste 0 1010.6 0.3 87
2017-10-26 04:00:00 13.8 10 Sur 15 Sur 0 1010.8 0.4 83
2017-10-26 03:00:00 14 12 Sur 21 Sur 0 1010.4 0.3 82
2017-10-26 02:00:00 15.2 3 Sudeste 15 Sudeste 0 1010.3 0.8 77
2017-10-26 01:00:00 15.1 8 Sudeste 15 Sur 0 1010.4 1.6 76
2017-10-26 00:00:00 13.9 6 Sur 18 Sudeste 0 1010.1 1.9 84